Time;durP1;ratioP1;P1;durP2;ratioP2;P2;SDS_P1;SDS_P2;PMS_P1;PMS_P2;Temp;Humidity;BMP_temperature;BMP_pressure;BME280_temperature;BME280_humidity;BME280_pressure;Samples;Min_cycle;Max_cycle;Signal;HPM_P1;HPM_P2
2021/08/03 00:00:57;;;;;;;3.17;1.67;;;;;;;-145.71;100.00;60690.53;5015143;28;20049;-84
2021/08/03 00:03:59;;;;;;;7.60;2.33;;;;;;;-145.71;100.00;60690.53;5015008;28;20026;-84
2021/08/03 00:06:27;;;;;;;3.65;1.95;;;;;;;-145.71;100.00;60690.53;5015368;28;20112;-84
2021/08/03 00:08:57;;;;;;;7.90;2.22;;;;;;;-145.71;100.00;60690.53;5014999;28;20026;-85
2021/08/03 00:11:25;;;;;;;5.88;2.55;;;;;;;-145.71;100.00;60690.53;4997747;28;20485;-84
2021/08/03 00:13:51;;;;;;;4.00;2.20;;;;;;;-145.71;100.00;60690.53;5014778;28;20037;-84
2021/08/03 00:16:17;;;;;;;15.52;2.85;;;;;;;-145.71;100.00;60690.53;5014560;28;20708;-84
2021/08/03 00:18:43;;;;;;;6.30;2.45;;;;;;;-145.71;100.00;60690.53;5014294;28;20034;-84
2021/08/03 00:21:11;;;;;;;6.55;2.70;;;;;;;-145.71;100.00;60690.53;5014871;28;20095;-83
2021/08/03 00:23:40;;;;;;;6.03;2.28;;;;;;;-145.71;100.00;60690.53;5014314;28;20049;-84
2021/08/03 00:26:07;;;;;;;6.72;2.40;;;;;;;-145.71;100.00;60690.53;5014823;28;20776;-84
2021/08/03 00:28:33;;;;;;;4.97;2.15;;;;;;;-145.71;100.00;60690.53;5015875;28;20515;-84
2021/08/03 00:30:59;;;;;;;6.55;1.98;;;;;;;-145.71;100.00;60690.53;5019111;28;20124;-84
2021/08/03 00:33:24;;;;;;;6.55;2.30;;;;;;;-145.71;100.00;60690.53;5016993;28;20064;-84
2021/08/03 00:35:51;;;;;;;5.13;2.03;;;;;;;-145.71;100.00;60690.53;4998971;28;20030;-84
2021/08/03 00:38:17;;;;;;;3.47;2.00;;;;;;;-145.71;100.00;60690.53;5015332;28;20050;-84
2021/08/03 00:40:52;;;;;;;4.35;2.00;;;;;;;-145.71;100.00;60690.53;4997229;28;20053;-84
2021/08/03 00:43:18;;;;;;;7.20;1.92;;;;;;;-145.71;100.00;60690.53;5014654;28;20034;-84
2021/08/03 00:45:43;;;;;;;7.72;2.33;;;;;;;-145.71;100.00;60690.53;4996651;28;20040;-84
2021/08/03 00:48:09;;;;;;;8.30;2.67;;;;;;;-145.71;100.00;60690.53;5014456;28;20382;-84
2021/08/03 00:50:35;;;;;;;5.65;2.60;;;;;;;-145.71;100.00;60690.53;5000386;28;20030;-84
2021/08/03 00:53:00;;;;;;;5.88;2.38;;;;;;;-145.71;100.00;60690.53;5014107;28;20746;-84
2021/08/03 00:55:26;;;;;;;10.05;2.42;;;;;;;-145.71;100.00;60690.53;5014380;28;20034;-84
2021/08/03 00:57:52;;;;;;;6.55;2.10;;;;;;;-145.71;100.00;60690.53;5014209;28;20116;-84
2021/08/03 01:00:18;;;;;;;5.95;2.00;;;;;;;-145.71;100.00;60690.53;5013121;28;20025;-85
2021/08/03 01:02:43;;;;;;;4.88;2.38;;;;;;;-145.71;100.00;60690.53;5014191;28;20026;-84
2021/08/03 01:05:09;;;;;;;6.78;1.83;;;;;;;-145.71;100.00;60690.53;5013878;28;20109;-84
2021/08/03 01:07:46;;;;;;;2.53;1.65;;;;;;;-145.71;100.00;60690.53;5014132;28;20059;-84
2021/08/03 01:10:41;;;;;;;5.00;1.98;;;;;;;-145.71;100.00;60690.53;5014039;28;20037;-84
2021/08/03 01:13:28;;;;;;;4.72;2.28;;;;;;;-145.71;100.00;60690.53;4997299;28;20079;-84
2021/08/03 01:16:08;;;;;;;5.18;3.28;;;;;;;-145.71;100.00;60690.53;5016092;28;20083;-84
2021/08/03 01:18:54;;;;;;;6.75;2.30;;;;;;;-145.71;100.00;60690.53;5013021;28;20034;-84
2021/08/03 01:21:28;;;;;;;6.30;2.20;;;;;;;-145.71;100.00;60690.53;5013808;28;20077;-84
2021/08/03 01:24:24;;;;;;;4.88;2.25;;;;;;;-145.71;100.00;60690.53;4995604;28;20145;-84
2021/08/03 01:27:34;;;;;;;3.97;2.20;;;;;;;-145.71;100.00;60690.53;5013278;28;20025;-84
2021/08/03 01:30:01;;;;;;;5.93;2.63;;;;;;;-145.71;100.00;60690.53;4936382;29;20061;-84
2021/08/03 01:32:30;;;;;;;5.05;2.30;;;;;;;-145.71;100.00;60690.53;4951966;29;20435;-84
2021/08/03 01:34:58;;;;;;;5.00;2.15;;;;;;;-145.71;100.00;60690.53;4967742;28;20132;-84
2021/08/03 01:37:26;;;;;;;6.85;2.20;;;;;;;-145.71;100.00;60690.53;4995216;28;20022;-84
2021/08/03 01:39:58;;;;;;;5.35;1.90;;;;;;;-145.71;100.00;60690.53;4994872;28;20490;-84
2021/08/03 01:42:25;;;;;;;3.40;2.17;;;;;;;-145.71;100.00;60690.53;5016147;28;20492;-84
2021/08/03 01:44:52;;;;;;;5.85;2.80;;;;;;;-145.71;100.00;60690.53;5012973;28;20108;-84
2021/08/03 01:47:22;;;;;;;6.25;2.20;;;;;;;-145.71;100.00;60690.53;4995105;28;20030;-84
2021/08/03 01:49:50;;;;;;;7.45;2.40;;;;;;;-145.71;100.00;60690.53;5012727;28;20029;-84
2021/08/03 01:52:17;;;;;;;8.07;2.60;;;;;;;-145.71;100.00;60690.53;5012868;28;20028;-84
2021/08/03 01:54:46;;;;;;;3.85;2.05;;;;;;;-145.71;100.00;60690.53;5013114;28;20026;-84
2021/08/03 01:57:13;;;;;;;4.70;2.58;;;;;;;-145.71;100.00;60690.53;5012854;28;20080;-84
2021/08/03 01:59:41;;;;;;;3.50;1.90;;;;;;;-145.71;100.00;60690.53;5013115;28;20305;-84
2021/08/03 02:02:07;;;;;;;3.75;2.08;;;;;;;-145.71;100.00;60690.53;4994689;28;20029;-84
2021/08/03 02:04:33;;;;;;;3.95;2.00;;;;;;;-145.71;100.00;60690.53;4994832;28;20469;-84
2021/08/03 02:06:59;;;;;;;2.60;1.83;;;;;;;-145.71;100.00;60690.53;4995055;28;20449;-84
2021/08/03 02:09:25;;;;;;;4.43;1.70;;;;;;;-145.71;100.00;60690.53;4995682;28;20024;-84
2021/08/03 02:11:52;;;;;;;5.38;1.95;;;;;;;-145.71;100.00;60690.53;5013122;28;20036;-84
2021/08/03 02:14:21;;;;;;;3.42;1.77;;;;;;;-145.71;100.00;60690.53;5012857;28;20033;-84
2021/08/03 02:16:46;;;;;;;5.82;2.05;;;;;;;-145.71;100.00;60690.53;5012973;28;20033;-84
2021/08/03 02:19:12;;;;;;;6.18;1.60;;;;;;;-145.71;100.00;60690.53;4994449;28;20057;-85
2021/08/03 02:21:40;;;;;;;4.43;1.92;;;;;;;-145.71;100.00;60690.53;5012428;28;20083;-84
2021/08/03 02:24:05;;;;;;;4.07;1.50;;;;;;;-145.71;100.00;60690.53;5011981;28;20065;-84
2021/08/03 02:26:31;;;;;;;4.43;1.80;;;;;;;-145.71;100.00;60690.53;5012297;28;20034;-84
2021/08/03 02:28:56;;;;;;;3.42;1.83;;;;;;;-145.71;100.00;60690.53;4994586;28;20028;-84
2021/08/03 02:31:48;;;;;;;10.25;2.42;;;;;;;-145.71;100.00;60690.53;5011856;28;20030;-84
2021/08/03 02:34:24;;;;;;;3.05;1.45;;;;;;;-145.71;100.00;60690.53;4998062;28;20120;-84
2021/08/03 02:36:55;;;;;;;4.13;1.50;;;;;;;-145.71;100.00;60690.53;4994687;28;20029;-84
2021/08/03 02:39:23;;;;;;;3.67;1.85;;;;;;;-145.71;100.00;60690.53;5012546;28;20073;-84
2021/08/03 02:41:49;;;;;;;4.65;1.65;;;;;;;-145.71;100.00;60690.53;4994393;28;20033;-84
2021/08/03 02:44:17;;;;;;;3.78;1.60;;;;;;;-145.71;100.00;60690.53;5012469;28;20114;-84
2021/08/03 02:46:45;;;;;;;9.05;1.85;;;;;;;-145.71;100.00;60690.53;5011886;28;20371;-84
2021/08/03 02:49:16;;;;;;;2.05;1.30;;;;;;;-145.71;100.00;60690.53;4995001;28;20445;-84
2021/08/03 02:51:43;;;;;;;4.78;2.03;;;;;;;-145.71;100.00;60690.53;5012740;28;20053;-84
2021/08/03 02:54:17;;;;;;;3.13;1.88;;;;;;;-145.71;100.00;60690.53;5012318;28;20097;-84
2021/08/03 02:56:44;;;;;;;2.78;1.73;;;;;;;-145.71;100.00;60690.53;5011686;28;20060;-83
2021/08/03 02:59:12;;;;;;;3.10;1.67;;;;;;;-145.71;100.00;60690.53;5011569;28;20030;-84
2021/08/03 03:01:40;;;;;;;3.55;1.38;;;;;;;-145.71;100.00;60690.53;5013035;28;20037;-84
2021/08/03 03:04:11;;;;;;;1.67;1.42;;;;;;;-145.71;100.00;60690.53;5013865;28;20076;-84
2021/08/03 03:06:38;;;;;;;7.30;1.80;;;;;;;-145.71;100.00;60690.53;5014098;28;20025;-84
2021/08/03 03:09:03;;;;;;;4.82;1.52;;;;;;;-145.71;100.00;60690.53;5014203;28;20025;-84
2021/08/03 03:11:31;;;;;;;4.38;1.80;;;;;;;-145.71;100.00;60690.53;4995401;28;20650;-84
2021/08/03 03:13:58;;;;;;;6.10;1.58;;;;;;;-145.71;100.00;60690.53;5013437;28;20468;-84
2021/08/03 03:16:26;;;;;;;3.90;1.23;;;;;;;-145.71;100.00;60690.53;5013107;28;20335;-84
2021/08/03 03:18:55;;;;;;;3.40;1.60;;;;;;;-145.71;100.00;60690.53;5012233;28;20397;-84
2021/08/03 03:21:22;;;;;;;5.40;1.63;;;;;;;-145.71;100.00;60690.53;5014952;28;20800;-84
2021/08/03 03:23:49;;;;;;;3.72;1.55;;;;;;;-145.71;100.00;60690.53;4994978;28;20160;-84
2021/08/03 03:26:15;;;;;;;6.35;1.70;;;;;;;-145.71;100.00;60690.53;5012621;28;20092;-84
2021/08/03 03:28:43;;;;;;;4.53;1.83;;;;;;;-145.71;100.00;60690.53;4993861;28;20072;-85
2021/08/03 03:31:09;;;;;;;5.38;1.50;;;;;;;-145.71;100.00;60690.53;4994085;28;20026;-84
2021/08/03 03:33:37;;;;;;;7.28;1.83;;;;;;;-145.71;100.00;60690.53;5011242;28;20038;-84
2021/08/03 03:36:03;;;;;;;6.97;1.80;;;;;;;-145.71;100.00;60690.53;4993195;28;20057;-84
2021/08/03 03:38:31;;;;;;;2.95;1.88;;;;;;;-145.71;100.00;60690.53;5011083;28;20098;-84
2021/08/03 03:40:58;;;;;;;5.03;1.58;;;;;;;-145.71;100.00;60690.53;4993064;28;20436;-84
2021/08/03 03:43:23;;;;;;;2.47;1.40;;;;;;;-145.71;100.00;60690.53;5010770;28;20034;-83
2021/08/03 03:45:54;;;;;;;3.58;1.70;;;;;;;-145.71;100.00;60690.53;4993537;28;20091;-84
2021/08/03 03:48:21;;;;;;;3.42;1.50;;;;;;;-145.71;100.00;60690.53;4995950;28;20029;-84
2021/08/03 03:50:51;;;;;;;4.75;1.90;;;;;;;-145.71;100.00;60690.53;4993111;28;20481;-84
2021/08/03 03:53:21;;;;;;;4.82;1.70;;;;;;;-145.71;100.00;60690.53;4996247;28;20030;-84
2021/08/03 03:55:58;;;;;;;3.13;1.40;;;;;;;-145.71;100.00;60690.53;5010827;28;20029;-84
2021/08/03 03:58:25;;;;;;;3.42;1.60;;;;;;;-145.71;100.00;60690.53;4992746;28;20489;-84
2021/08/03 04:00:53;;;;;;;4.57;1.95;;;;;;;-145.71;100.00;60690.53;5010535;28;20042;-84
2021/08/03 04:03:20;;;;;;;3.47;1.52;;;;;;;-145.71;100.00;60690.53;5010721;28;20399;-84
2021/08/03 04:05:47;;;;;;;3.40;1.50;;;;;;;-145.71;100.00;60690.53;5010767;28;20048;-84
2021/08/03 04:08:12;;;;;;;3.17;1.60;;;;;;;-145.71;100.00;60690.53;4992804;28;20366;-84
2021/08/03 04:10:39;;;;;;;3.33;1.63;;;;;;;-145.71;100.00;60690.53;5010372;28;20030;-84
2021/08/03 04:13:05;;;;;;;4.95;1.50;;;;;;;-145.71;100.00;60690.53;5010642;28;20057;-84
2021/08/03 04:15:34;;;;;;;3.13;1.42;;;;;;;-145.71;100.00;60690.53;4992856;28;20026;-84
2021/08/03 04:17:59;;;;;;;5.57;1.50;;;;;;;-145.71;100.00;60690.53;4992721;28;20056;-84
2021/08/03 04:20:25;;;;;;;5.07;1.85;;;;;;;-145.71;100.00;60690.53;4993861;28;20104;-84
2021/08/03 04:22:50;;;;;;;3.72;1.58;;;;;;;-145.71;100.00;60690.53;4995586;28;20614;-84
2021/08/03 04:25:16;;;;;;;6.07;1.40;;;;;;;-145.71;100.00;60690.53;5010231;28;20389;-83
2021/08/03 04:27:42;;;;;;;5.78;1.52;;;;;;;-145.71;100.00;60690.53;5010671;28;20037;-83
2021/08/03 04:30:09;;;;;;;2.92;1.50;;;;;;;-145.71;100.00;60690.53;4992886;28;20033;-84
2021/08/03 04:32:34;;;;;;;3.42;1.52;;;;;;;-145.71;100.00;60690.53;5010898;28;20037;-84
2021/08/03 04:34:59;;;;;;;3.90;1.50;;;;;;;-145.71;100.00;60690.53;5013768;28;20030;-83
2021/08/03 04:37:25;;;;;;;2.90;1.00;;;;;;;-145.71;100.00;60690.53;4996446;28;20167;-83
2021/08/03 04:39:50;;;;;;;5.63;1.60;;;;;;;-145.71;100.00;60690.53;5014237;28;20026;-84
2021/08/03 04:42:15;;;;;;;6.25;1.63;;;;;;;-145.71;100.00;60690.53;5014205;28;20500;-84
2021/08/03 04:44:41;;;;;;;5.13;1.35;;;;;;;-145.71;100.00;60690.53;5016597;28;20500;-84
2021/08/03 04:47:06;;;;;;;1.88;1.65;;;;;;;-145.71;100.00;60690.53;5016719;28;20061;-84
2021/08/03 04:49:31;;;;;;;4.78;1.45;;;;;;;-145.71;100.00;60690.53;5016052;28;20081;-84
2021/08/03 04:51:57;;;;;;;2.33;1.25;;;;;;;-145.71;100.00;60690.53;4997819;28;20044;-84
2021/08/03 04:54:22;;;;;;;6.45;2.33;;;;;;;-145.71;100.00;60690.53;5015330;28;20108;-84
2021/08/03 04:56:48;;;;;;;2.97;1.23;;;;;;;-145.71;100.00;60690.53;5014738;28;20030;-84
2021/08/03 04:59:13;;;;;;;4.82;1.70;;;;;;;-145.71;100.00;60690.53;5013837;28;20029;-84
2021/08/03 05:01:38;;;;;;;4.82;1.65;;;;;;;-145.71;100.00;60690.53;4996195;28;20022;-84
2021/08/03 05:04:04;;;;;;;6.90;1.88;;;;;;;-145.71;100.00;60690.53;4996094;28;20030;-84
2021/08/03 05:06:29;;;;;;;3.17;1.20;;;;;;;-145.71;100.00;60690.53;5013487;28;20038;-84
2021/08/03 05:08:54;;;;;;;2.75;1.10;;;;;;;-145.71;100.00;60690.53;4995627;28;20049;-84
2021/08/03 05:11:19;;;;;;;2.78;1.45;;;;;;;-145.71;100.00;60690.53;5013817;28;20164;-84
2021/08/03 05:13:45;;;;;;;1.38;1.20;;;;;;;-145.71;100.00;60690.53;4995946;28;20029;-84
2021/08/03 05:16:10;;;;;;;3.17;1.55;;;;;;;-145.71;100.00;60690.53;5014845;28;20383;-84
2021/08/03 05:18:35;;;;;;;2.60;1.23;;;;;;;-145.71;100.00;60690.53;4997781;28;20037;-84
2021/08/03 05:21:01;;;;;;;4.88;1.27;;;;;;;-145.71;100.00;60690.53;5015210;28;20113;-84
2021/08/03 05:23:26;;;;;;;1.98;1.10;;;;;;;-145.71;100.00;60690.53;4992410;28;20050;-84
2021/08/03 05:25:51;;;;;;;2.30;1.20;;;;;;;-145.71;100.00;60690.53;4992879;28;20045;-84
2021/08/03 05:28:18;;;;;;;3.38;1.58;;;;;;;-145.71;100.00;60690.53;4993943;28;20057;-84
2021/08/03 05:30:47;;;;;;;2.00;1.15;;;;;;;-145.71;100.00;60690.53;4994286;28;20026;-84
2021/08/03 05:33:13;;;;;;;3.38;1.45;;;;;;;-145.71;100.00;60690.53;4992211;28;20113;-84
2021/08/03 05:35:38;;;;;;;7.07;1.40;;;;;;;-145.71;100.00;60690.53;4993998;28;20030;-84
2021/08/03 05:38:05;;;;;;;4.13;1.70;;;;;;;-145.71;100.00;60690.53;4996361;28;20038;-84
2021/08/03 05:40:31;;;;;;;4.07;1.45;;;;;;;-145.71;100.00;60690.53;4996095;28;20026;-84
2021/08/03 05:42:56;;;;;;;4.40;1.60;;;;;;;-145.71;100.00;60690.53;4996307;28;20036;-84
2021/08/03 05:45:23;;;;;;;7.22;1.73;;;;;;;-145.71;100.00;60690.53;4994684;28;20402;-84
2021/08/03 05:47:48;;;;;;;2.55;1.38;;;;;;;-145.71;100.00;60690.53;4993918;28;20030;-83
2021/08/03 05:50:14;;;;;;;6.13;1.40;;;;;;;-145.71;100.00;60690.53;4993274;28;20126;-84
2021/08/03 05:52:39;;;;;;;4.85;1.60;;;;;;;-145.71;100.00;60690.53;4992916;28;20026;-84
2021/08/03 05:55:05;;;;;;;3.17;1.60;;;;;;;-145.71;100.00;60690.53;4994163;28;20061;-83
2021/08/03 05:57:30;;;;;;;5.18;1.33;;;;;;;-145.71;100.00;60690.53;4993738;28;20058;-84
2021/08/03 05:59:56;;;;;;;3.50;1.70;;;;;;;-145.71;100.00;60690.53;4991913;28;20037;-84
2021/08/03 06:02:22;;;;;;;5.78;2.30;;;;;;;-145.71;100.00;60690.53;4993817;28;20531;-84
2021/08/03 06:04:47;;;;;;;4.35;1.40;;;;;;;-145.71;100.00;60690.53;4993850;28;20059;-84
2021/08/03 06:07:14;;;;;;;2.58;1.50;;;;;;;-145.71;100.00;60690.53;4993336;28;20085;-84
2021/08/03 06:09:42;;;;;;;3.67;1.60;;;;;;;-145.71;100.00;60690.53;4994053;28;20842;-84
2021/08/03 06:12:10;;;;;;;4.22;1.35;;;;;;;-145.71;100.00;60690.53;4993421;28;20068;-84
2021/08/03 06:14:44;;;;;;;4.40;1.80;;;;;;;-145.71;100.00;60690.53;4993002;28;20402;-84
2021/08/03 06:17:13;;;;;;;8.18;1.33;;;;;;;-145.71;100.00;60690.53;4991612;28;20124;-84
2021/08/03 06:19:46;;;;;;;6.93;1.80;;;;;;;-145.71;100.00;60690.53;4992530;28;20095;-84
2021/08/03 06:22:12;;;;;;;3.53;1.73;;;;;;;-145.71;100.00;60690.53;4994276;28;20050;-84
2021/08/03 06:24:39;;;;;;;5.22;2.22;;;;;;;-145.71;100.00;60690.53;5012583;28;20087;-84
2021/08/03 06:27:12;;;;;;;2.83;1.42;;;;;;;-145.71;100.00;60690.53;5012766;28;20052;-85
2021/08/03 06:29:39;;;;;;;2.75;1.60;;;;;;;-145.71;100.00;60690.53;4994928;28;20054;-84
2021/08/03 06:32:06;;;;;;;4.95;1.30;;;;;;;-145.71;100.00;60690.53;5027126;28;20030;-84
2021/08/03 06:34:38;;;;;;;4.82;1.25;;;;;;;-145.71;100.00;60690.53;4995349;28;20040;-85
2021/08/03 06:37:04;;;;;;;1.75;1.20;;;;;;;-145.71;100.00;60690.53;5011918;28;20079;-84
2021/08/03 06:39:29;;;;;;;1.73;1.10;;;;;;;-145.71;100.00;60690.53;5011322;28;20421;-84
2021/08/03 06:42:17;;;;;;;3.70;1.35;;;;;;;-145.71;100.00;60690.53;4994347;28;20525;-84
2021/08/03 06:45:14;;;;;;;3.13;1.42;;;;;;;-145.71;100.00;60690.53;4996588;28;20033;-84
2021/08/03 06:47:52;;;;;;;2.67;1.25;;;;;;;-145.71;100.00;60690.53;5000665;28;20509;-85
2021/08/03 06:50:21;;;;;;;6.88;1.45;;;;;;;-145.71;100.00;60690.53;5029523;28;20037;-85
2021/08/03 06:52:49;;;;;;;1.67;1.25;;;;;;;-145.71;100.00;60690.53;5012639;28;20025;-84
2021/08/03 06:55:15;;;;;;;2.88;1.25;;;;;;;-145.71;100.00;60690.53;5022940;28;20439;-84
2021/08/03 06:57:49;;;;;;;5.22;1.42;;;;;;;-145.71;100.00;60690.53;4994458;28;20049;-84
2021/08/03 07:00:16;;;;;;;1.75;1.13;;;;;;;-145.71;100.00;60690.53;5028640;28;20662;-83
2021/08/03 07:02:46;;;;;;;2.67;1.30;;;;;;;-145.71;100.00;60690.53;5030566;28;20464;-84
2021/08/03 07:05:17;;;;;;;2.35;1.20;;;;;;;-145.71;100.00;60690.53;5028569;28;20025;-84
2021/08/03 07:07:44;;;;;;;2.55;1.17;;;;;;;-145.71;100.00;60690.53;4993011;28;20041;-84
2021/08/03 07:10:15;;;;;;;1.73;1.15;;;;;;;-145.71;100.00;60690.53;5010037;28;20037;-84
2021/08/03 07:12:44;;;;;;;3.85;1.38;;;;;;;-145.71;100.00;60690.53;5026022;28;20028;-84
2021/08/03 07:15:11;;;;;;;2.47;1.20;;;;;;;-145.71;100.00;60690.53;5011312;28;20033;-83
2021/08/03 07:17:39;;;;;;;4.03;1.20;;;;;;;-145.71;100.00;60690.53;5010837;28;20029;-84
2021/08/03 07:20:05;;;;;;;3.75;1.30;;;;;;;-145.71;100.00;60690.53;5029146;28;20029;-84
2021/08/03 07:22:31;;;;;;;4.40;1.50;;;;;;;-145.71;100.00;60690.53;4999321;28;20053;-83
2021/08/03 07:24:57;;;;;;;1.88;1.05;;;;;;;-145.71;100.00;60690.53;5010972;28;20103;-84
2021/08/03 07:27:22;;;;;;;1.88;1.00;;;;;;;-145.71;100.00;60690.53;4999132;28;20040;-84
2021/08/03 07:29:48;;;;;;;4.18;1.00;;;;;;;-145.71;100.00;60690.53;5006656;28;20030;-84
2021/08/03 07:32:13;;;;;;;4.32;1.63;;;;;;;-145.71;100.00;60690.53;4992515;28;20481;-84
2021/08/03 07:34:42;;;;;;;1.38;0.95;;;;;;;-145.71;100.00;60690.53;5006823;28;20057;-84
2021/08/03 07:37:09;;;;;;;2.50;1.10;;;;;;;-145.71;100.00;60690.53;5028013;28;20036;-84
2021/08/03 07:39:36;;;;;;;2.83;1.00;;;;;;;-145.71;100.00;60690.53;4996107;28;20037;-84
2021/08/03 07:42:03;;;;;;;3.58;1.50;;;;;;;-145.71;100.00;60690.53;5029564;28;20043;-84
2021/08/03 07:44:28;;;;;;;3.35;1.00;;;;;;;-145.71;100.00;60690.53;5016836;28;20029;-84
2021/08/03 07:46:53;;;;;;;1.85;0.98;;;;;;;-145.71;100.00;60690.53;5009605;28;20538;-84
2021/08/03 07:49:19;;;;;;;2.88;1.30;;;;;;;-145.71;100.00;60690.53;4992030;28;20025;-84
2021/08/03 07:51:48;;;;;;;3.35;1.08;;;;;;;-145.71;100.00;60690.53;4991891;28;20132;-84
2021/08/03 07:54:14;;;;;;;4.50;1.30;;;;;;;-145.71;100.00;60690.53;5011426;28;20037;-84
2021/08/03 07:56:39;;;;;;;2.20;1.10;;;;;;;-145.71;100.00;60690.53;5005945;28;20038;-84
2021/08/03 07:59:05;;;;;;;4.03;1.23;;;;;;;-145.71;100.00;60690.53;5011744;28;20033;-85
2021/08/03 08:01:30;;;;;;;2.80;1.02;;;;;;;-145.71;100.00;60690.53;4996602;28;20444;-84
2021/08/03 08:03:55;;;;;;;1.90;1.00;;;;;;;-145.71;100.00;60690.53;5028746;28;20034;-85
2021/08/03 08:06:21;;;;;;;1.52;1.00;;;;;;;-145.71;100.00;60690.53;5018041;28;20033;-84
2021/08/03 08:08:46;;;;;;;1.98;1.15;;;;;;;-145.71;100.00;60690.53;5024580;28;20083;-85
2021/08/03 08:11:12;;;;;;;2.55;1.10;;;;;;;-145.71;100.00;60690.53;4998248;28;20080;-84
2021/08/03 08:13:37;;;;;;;8.02;1.33;;;;;;;-145.71;100.00;60690.53;5033204;28;20029;-84
2021/08/03 08:16:03;;;;;;;1.35;1.05;;;;;;;-145.71;100.00;60690.53;5015693;28;20480;-83
2021/08/03 08:18:29;;;;;;;1.70;1.13;;;;;;;-145.71;100.00;60690.53;5036018;28;20055;-83
2021/08/03 08:20:54;;;;;;;1.42;1.00;;;;;;;-145.71;100.00;60690.53;5020272;28;20032;-84
2021/08/03 08:23:19;;;;;;;2.35;1.15;;;;;;;-145.71;100.00;60690.53;5032932;28;20191;-82
2021/08/03 08:25:45;;;;;;;1.10;0.80;;;;;;;-145.71;100.00;60690.53;5020180;28;20083;-82
2021/08/03 08:28:10;;;;;;;1.52;1.00;;;;;;;-145.71;100.00;60690.53;5006976;28;20052;-82
2021/08/03 08:30:38;;;;;;;2.70;1.30;;;;;;;-145.71;100.00;60690.53;5029802;28;20017;-83
2021/08/03 08:33:04;;;;;;;1.95;0.80;;;;;;;-145.71;100.00;60690.53;4997176;28;20033;-83
2021/08/03 08:35:30;;;;;;;1.33;1.10;;;;;;;-145.71;100.00;60690.53;5016712;28;20030;-83
2021/08/03 08:37:56;;;;;;;1.20;0.95;;;;;;;-145.71;100.00;60690.53;5005597;28;20041;-82
2021/08/03 08:40:22;;;;;;;1.25;0.90;;;;;;;-145.71;100.00;60690.53;5011783;28;20041;-83
2021/08/03 08:42:47;;;;;;;2.15;1.17;;;;;;;-145.71;100.00;60690.53;5008130;28;20400;-83
2021/08/03 08:45:14;;;;;;;3.60;1.48;;;;;;;-145.71;100.00;60690.53;5014693;28;20060;-83
2021/08/03 08:47:47;;;;;;;1.65;0.98;;;;;;;-145.71;100.00;60690.53;5005053;28;20505;-83
2021/08/03 08:50:15;;;;;;;2.60;1.00;;;;;;;-145.71;100.00;60690.53;5003314;28;20059;-83
2021/08/03 08:52:41;;;;;;;1.25;1.00;;;;;;;-145.71;100.00;60690.53;5017393;28;20104;-83
2021/08/03 08:55:09;;;;;;;1.70;0.90;;;;;;;-145.71;100.00;60690.53;5013185;28;20034;-83
2021/08/03 08:57:34;;;;;;;3.60;1.00;;;;;;;-145.71;100.00;60690.53;5012733;28;20127;-83
2021/08/03 09:00:00;;;;;;;3.15;1.60;;;;;;;-145.71;100.00;60690.53;5033239;28;20816;-83
2021/08/03 09:02:42;;;;;;;1.55;0.88;;;;;;;-145.71;100.00;60690.53;5020315;28;20096;-83
2021/08/03 09:05:09;;;;;;;0.77;0.77;;;;;;;-145.71;100.00;60690.53;5028422;28;20033;-82
2021/08/03 09:07:52;;;;;;;1.83;0.90;;;;;;;-145.71;100.00;60690.53;5017274;28;20380;-83
2021/08/03 09:10:34;;;;;;;1.83;1.00;;;;;;;-145.71;100.00;60690.53;5024634;28;20079;-83
2021/08/03 09:13:11;;;;;;;1.23;0.95;;;;;;;-145.71;100.00;60690.53;5012752;28;20547;-83
2021/08/03 09:15:40;;;;;;;2.58;1.20;;;;;;;-145.71;100.00;60690.53;5003366;28;20061;-83
2021/08/03 09:18:26;;;;;;;1.30;1.00;;;;;;;-145.71;100.00;60690.53;5022961;28;20037;-83
2021/08/03 09:20:52;;;;;;;1.85;0.90;;;;;;;-145.71;100.00;60690.53;5010524;28;20136;-83
2021/08/03 09:23:17;;;;;;;2.05;1.00;;;;;;;-145.71;100.00;60690.53;5031583;28;20184;-82
2021/08/03 09:26:13;;;;;;;2.92;1.13;;;;;;;-145.71;100.00;60690.53;5008267;28;20027;-83
2021/08/03 09:29:03;;;;;;;3.40;0.98;;;;;;;-145.71;100.00;60690.53;5010138;28;20038;-85
2021/08/03 09:31:34;;;;;;;2.22;0.88;;;;;;;-145.71;100.00;60690.53;4983000;28;20030;-84
2021/08/03 09:34:09;;;;;;;1.25;1.00;;;;;;;-145.71;100.00;60690.53;5032562;28;20091;-83
2021/08/03 09:36:56;;;;;;;3.28;1.08;;;;;;;-145.71;100.00;60690.53;5032837;28;20493;-83
2021/08/03 09:39:35;;;;;;;1.35;1.02;;;;;;;-145.71;100.00;60690.53;5035211;28;20057;-85
2021/08/03 09:42:03;;;;;;;1.75;1.05;;;;;;;-145.71;100.00;60690.53;5014619;28;20030;-85
2021/08/03 09:44:29;;;;;;;1.50;1.00;;;;;;;-145.71;100.00;60690.53;5021096;28;20032;-85
2021/08/03 09:46:57;;;;;;;0.82;0.82;;;;;;;-145.71;100.00;60690.53;5022493;28;20021;-82
2021/08/03 09:49:37;;;;;;;1.05;0.70;;;;;;;-145.71;100.00;60690.53;5008933;28;20026;-83
2021/08/03 09:52:14;;;;;;;1.85;1.00;;;;;;;-145.71;100.00;60690.53;5020249;28;20030;-83
2021/08/03 09:54:40;;;;;;;1.55;1.00;;;;;;;-145.71;100.00;60690.53;5012315;28;20037;-83
2021/08/03 09:57:23;;;;;;;2.85;1.00;;;;;;;-145.71;100.00;60690.53;4995822;28;20030;-82
2021/08/03 09:59:49;;;;;;;3.35;1.08;;;;;;;-145.71;100.00;60690.53;5023440;28;20129;-83
2021/08/03 10:02:25;;;;;;;1.85;1.00;;;;;;;-145.71;100.00;60690.53;5021507;28;20080;-83
2021/08/03 10:04:52;;;;;;;3.33;1.15;;;;;;;-145.71;100.00;60690.53;5034534;28;20080;-83
2021/08/03 10:07:18;;;;;;;2.97;2.13;;;;;;;-145.71;100.00;60690.53;5017221;28;20038;-83
2021/08/03 10:09:45;;;;;;;2.10;1.17;;;;;;;-145.71;100.00;60690.53;5028275;28;20022;-83
2021/08/03 10:12:11;;;;;;;3.22;0.93;;;;;;;-145.71;100.00;60690.53;5022324;28;20029;-83
2021/08/03 10:14:36;;;;;;;4.18;1.10;;;;;;;-145.71;100.00;60690.53;5033913;28;20107;-83
2021/08/03 10:17:02;;;;;;;2.92;0.80;;;;;;;-145.71;100.00;60690.53;5011667;28;20033;-83
2021/08/03 10:19:30;;;;;;;2.42;0.90;;;;;;;-145.71;100.00;60690.53;5013098;28;20061;-83
2021/08/03 10:22:12;;;;;;;1.85;1.17;;;;;;;-145.71;100.00;60690.53;5011161;28;20039;-83
2021/08/03 10:24:41;;;;;;;2.35;0.82;;;;;;;-145.71;100.00;60690.53;4992390;28;20046;-83
2021/08/03 10:27:11;;;;;;;3.33;0.90;;;;;;;-145.71;100.00;60690.53;4994591;28;20041;-82
2021/08/03 10:29:51;;;;;;;2.30;0.80;;;;;;;-145.71;100.00;60690.53;4975878;28;20125;-83
2021/08/03 10:32:49;;;;;;;1.17;1.00;;;;;;;-145.71;100.00;60690.53;4989635;28;20026;-83
2021/08/03 10:35:19;;;;;;;2.90;0.82;;;;;;;-145.71;100.00;60690.53;4974241;28;20034;-83
2021/08/03 10:38:09;;;;;;;0.90;0.70;;;;;;;-145.71;100.00;60690.53;4990285;28;20026;-83
2021/08/03 10:40:44;;;;;;;0.82;0.63;;;;;;;-145.71;100.00;60690.53;4969223;28;20031;-83
2021/08/03 10:43:23;;;;;;;1.38;0.73;;;;;;;-145.71;100.00;60690.53;4986301;28;20072;-84
2021/08/03 10:46:07;;;;;;;0.95;0.70;;;;;;;-145.71;100.00;60690.53;4989514;28;20157;-83
2021/08/03 10:48:38;;;;;;;1.58;0.90;;;;;;;-145.71;100.00;60690.53;4989371;28;20030;-84
2021/08/03 10:51:15;;;;;;;1.20;0.82;;;;;;;-145.71;100.00;60690.53;4975652;28;20090;-84
2021/08/03 10:53:52;;;;;;;1.13;0.77;;;;;;;-145.71;100.00;60690.53;4986815;28;20031;-84
2021/08/03 10:56:19;;;;;;;1.50;0.95;;;;;;;-145.71;100.00;60690.53;4981338;28;20030;-83
2021/08/03 10:58:45;;;;;;;1.08;0.70;;;;;;;-145.71;100.00;60690.53;4971409;28;20070;-82
2021/08/03 11:01:10;;;;;;;1.10;1.00;;;;;;;-145.71;100.00;60690.53;4985884;28;20034;-83
2021/08/03 11:03:36;;;;;;;2.45;0.90;;;;;;;-145.71;100.00;60690.53;4977172;28;20069;-83
2021/08/03 11:06:10;;;;;;;0.80;0.80;;;;;;;-145.71;100.00;60690.53;4979358;28;20030;-84
2021/08/03 11:08:47;;;;;;;0.88;0.65;;;;;;;-145.71;100.00;60690.53;4980916;28;20034;-84
2021/08/03 11:11:22;;;;;;;2.05;1.10;;;;;;;-145.71;100.00;60690.53;4973359;28;20062;-84
2021/08/03 11:13:48;;;;;;;1.63;0.93;;;;;;;-145.71;100.00;60690.53;4985076;28;20030;-84
2021/08/03 11:16:19;;;;;;;2.40;1.10;;;;;;;-145.71;100.00;60690.53;4979659;28;20022;-84
2021/08/03 11:18:55;;;;;;;2.53;1.20;;;;;;;-145.71;100.00;60690.53;4976012;28;20109;-84